sensor_id;sensor_type;location;lat;lon;timestamp;temperature;humidity
20858;DHT22;10589;53.636;10.012;2023-08-06T03:46:07;14.70;99.90
20858;DHT22;10589;53.636;10.012;2023-08-06T03:48:32;14.70;99.90
20858;DHT22;10589;53.636;10.012;2023-08-06T03:50:58;14.70;99.90
20858;DHT22;10589;53.636;10.012;2023-08-06T03:53:26;14.70;99.90
20858;DHT22;10589;53.636;10.012;2023-08-06T03:55:51;14.60;99.90
20858;DHT22;10589;53.636;10.012;2023-08-06T03:58:17;14.60;99.90
20858;DHT22;10589;53.636;10.012;2023-08-06T04:00:42;14.60;99.90
20858;DHT22;10589;53.636;10.012;2023-08-06T04:03:08;14.60;99.90
20858;DHT22;10589;53.636;10.012;2023-08-06T04:05:34;14.70;99.90
20858;DHT22;10589;53.636;10.012;2023-08-06T04:07:59;14.60;99.90
20858;DHT22;10589;53.636;10.012;2023-08-06T04:10:25;14.60;99.90
20858;DHT22;10589;53.636;10.012;2023-08-06T04:12:50;14.60;99.90
20858;DHT22;10589;53.636;10.012;2023-08-06T04:15:16;14.60;99.90
20858;DHT22;10589;53.636;10.012;2023-08-06T04:17:41;14.60;99.90
20858;DHT22;10589;53.636;10.012;2023-08-06T04:20:07;14.60;99.90
20858;DHT22;10589;53.636;10.012;2023-08-06T04:22:33;14.60;99.90
20858;DHT22;10589;53.636;10.012;2023-08-06T04:24:59;14.60;99.90
20858;DHT22;10589;53.636;10.012;2023-08-06T04:27:24;14.60;99.90
20858;DHT22;10589;53.636;10.012;2023-08-06T04:29:50;14.70;99.90
20858;DHT22;10589;53.636;10.012;2023-08-06T04:32:16;14.70;99.90
20858;DHT22;10589;53.636;10.012;2023-08-06T04:34:42;14.70;99.90
20858;DHT22;10589;53.636;10.012;2023-08-06T04:37:08;14.70;99.90
20858;DHT22;10589;53.636;10.012;2023-08-06T04:39:34;14.70;99.90
20858;DHT22;10589;53.636;10.012;2023-08-06T04:41:59;14.60;99.90
20858;DHT22;10589;53.636;10.012;2023-08-06T04:44:25;14.60;99.90
20858;DHT22;10589;53.636;10.012;2023-08-06T04:46:51;14.60;99.90
20858;DHT22;10589;53.636;10.012;2023-08-06T04:49:19;14.50;99.90
20858;DHT22;10589;53.636;10.012;2023-08-06T04:51:45;14.60;99.90
20858;DHT22;10589;53.636;10.012;2023-08-06T04:54:11;14.60;99.90
20858;DHT22;10589;53.636;10.012;2023-08-06T04:56:36;14.60;99.90
20858;DHT22;10589;53.636;10.012;2023-08-06T04:59:02;14.60;99.90
20858;DHT22;10589;53.636;10.012;2023-08-06T05:01:27;14.60;99.90
20858;DHT22;10589;53.636;10.012;2023-08-06T05:03:54;14.60;99.90
20858;DHT22;10589;53.636;10.012;2023-08-06T05:06:19;14.60;99.90
20858;DHT22;10589;53.636;10.012;2023-08-06T05:08:45;14.60;99.90
20858;DHT22;10589;53.636;10.012;2023-08-06T05:11:10;14.50;99.90
20858;DHT22;10589;53.636;10.012;2023-08-06T05:13:36;14.60;99.90
20858;DHT22;10589;53.636;10.012;2023-08-06T05:16:01;14.60;99.90
20858;DHT22;10589;53.636;10.012;2023-08-06T05:18:27;14.60;99.90
20858;DHT22;10589;53.636;10.012;2023-08-06T05:20:53;14.60;99.90
20858;DHT22;10589;53.636;10.012;2023-08-06T05:23:19;14.60;99.90
20858;DHT22;10589;53.636;10.012;2023-08-06T05:25:44;14.60;99.90
20858;DHT22;10589;53.636;10.012;2023-08-06T05:28:10;14.60;99.90
20858;DHT22;10589;53.636;10.012;2023-08-06T05:30:39;14.70;99.90
20858;DHT22;10589;53.636;10.012;2023-08-06T05:33:05;14.70;99.90
20858;DHT22;10589;53.636;10.012;2023-08-06T05:35:30;14.80;99.90
20858;DHT22;10589;53.636;10.012;2023-08-06T05:37:56;14.80;99.90
20858;DHT22;10589;53.636;10.012;2023-08-06T05:40:22;14.90;99.90
20858;DHT22;10589;53.636;10.012;2023-08-06T05:42:47;14.90;99.90
20858;DHT22;10589;53.636;10.012;2023-08-06T05:45:13;14.80;99.90
20858;DHT22;10589;53.636;10.012;2023-08-06T05:47:39;14.90;99.90
20858;DHT22;10589;53.636;10.012;2023-08-06T05:50:05;14.90;99.90
20858;DHT22;10589;53.636;10.012;2023-08-06T05:52:30;15.00;99.90
20858;DHT22;10589;53.636;10.012;2023-08-06T05:54:56;15.00;99.90
20858;DHT22;10589;53.636;10.012;2023-08-06T05:57:21;15.00;99.90
20858;DHT22;10589;53.636;10.012;2023-08-06T05:59:47;15.10;99.90
20858;DHT22;10589;53.636;10.012;2023-08-06T06:02:13;15.10;99.90
20858;DHT22;10589;53.636;10.012;2023-08-06T06:04:40;15.20;99.90
20858;DHT22;10589;53.636;10.012;2023-08-06T06:07:06;15.20;99.90
20858;DHT22;10589;53.636;10.012;2023-08-06T06:09:31;15.20;99.90
20858;DHT22;10589;53.636;10.012;2023-08-06T06:11:57;15.20;99.90
20858;DHT22;10589;53.636;10.012;2023-08-06T06:14:22;15.30;99.90
20858;DHT22;10589;53.636;10.012;2023-08-06T06:16:48;15.30;99.90
20858;DHT22;10589;53.636;10.012;2023-08-06T06:19:14;15.30;99.90
20858;DHT22;10589;53.636;10.012;2023-08-06T06:21:40;15.40;99.90
20858;DHT22;10589;53.636;10.012;2023-08-06T06:24:05;15.40;99.90
20858;DHT22;10589;53.636;10.012;2023-08-06T06:26:32;15.40;99.90
20858;DHT22;10589;53.636;10.012;2023-08-06T06:28:57;15.40;99.90
20858;DHT22;10589;53.636;10.012;2023-08-06T06:31:23;15.40;99.90
20858;DHT22;10589;53.636;10.012;2023-08-06T06:33:49;15.50;99.90
20858;DHT22;10589;53.636;10.012;2023-08-06T06:36:15;15.60;99.90
20858;DHT22;10589;53.636;10.012;2023-08-06T06:38:40;15.60;99.90
20858;DHT22;10589;53.636;10.012;2023-08-06T06:41:06;15.60;99.90
20858;DHT22;10589;53.636;10.012;2023-08-06T06:43:32;15.70;99.90
20858;DHT22;10589;53.636;10.012;2023-08-06T06:45:59;15.80;99.90
20858;DHT22;10589;53.636;10.012;2023-08-06T06:48:28;15.70;99.90
20858;DHT22;10589;53.636;10.012;2023-08-06T06:50:54;15.70;99.90
20858;DHT22;10589;53.636;10.012;2023-08-06T06:53:20;15.70;99.90
20858;DHT22;10589;53.636;10.012;2023-08-06T06:55:48;15.80;99.90
20858;DHT22;10589;53.636;10.012;2023-08-06T06:58:15;15.80;99.90
20858;DHT22;10589;53.636;10.012;2023-08-06T07:00:41;15.80;99.90
20858;DHT22;10589;53.636;10.012;2023-08-06T07:03:07;15.80;99.90
20858;DHT22;10589;53.636;10.012;2023-08-06T07:05:32;15.80;99.90
20858;DHT22;10589;53.636;10.012;2023-08-06T07:07:58;15.90;99.90
20858;DHT22;10589;53.636;10.012;2023-08-06T07:10:24;16.00;99.90
20858;DHT22;10589;53.636;10.012;2023-08-06T07:12:49;16.00;99.90
20858;DHT22;10589;53.636;10.012;2023-08-06T07:15:15;16.10;99.90
20858;DHT22;10589;53.636;10.012;2023-08-06T07:17:43;16.10;99.90
20858;DHT22;10589;53.636;10.012;2023-08-06T07:20:08;16.30;99.90
20858;DHT22;10589;53.636;10.012;2023-08-06T07:22:34;16.40;99.90
20858;DHT22;10589;53.636;10.012;2023-08-06T07:25:00;16.50;99.90
20858;DHT22;10589;53.636;10.012;2023-08-06T07:27:25;16.60;99.90
20858;DHT22;10589;53.636;10.012;2023-08-06T07:29:51;16.50;99.90
20858;DHT22;10589;53.636;10.012;2023-08-06T07:32:18;16.60;99.90
20858;DHT22;10589;53.636;10.012;2023-08-06T07:34:44;16.50;99.90
20858;DHT22;10589;53.636;10.012;2023-08-06T07:37:10;16.50;99.90
20858;DHT22;10589;53.636;10.012;2023-08-06T07:39:35;16.60;99.90
20858;DHT22;10589;53.636;10.012;2023-08-06T07:42:03;16.70;99.90
20858;DHT22;10589;53.636;10.012;2023-08-06T07:44:31;16.70;99.90
20858;DHT22;10589;53.636;10.012;2023-08-06T07:46:56;16.70;99.90
20858;DHT22;10589;53.636;10.012;2023-08-06T07:49:22;16.80;99.90
20858;DHT22;10589;53.636;10.012;2023-08-06T07:51:48;16.90;99.90
20858;DHT22;10589;53.636;10.012;2023-08-06T07:54:13;16.90;99.90
20858;DHT22;10589;53.636;10.012;2023-08-06T07:56:39;16.90;99.90
20858;DHT22;10589;53.636;10.012;2023-08-06T07:59:04;17.00;99.90
20858;DHT22;10589;53.636;10.012;2023-08-06T08:01:30;17.10;99.90
20858;DHT22;10589;53.636;10.012;2023-08-06T08:03:55;17.00;99.90
20858;DHT22;10589;53.636;10.012;2023-08-06T08:06:22;17.20;99.90
20858;DHT22;10589;53.636;10.012;2023-08-06T08:08:48;17.30;99.90
20858;DHT22;10589;53.636;10.012;2023-08-06T08:11:14;17.30;99.90
20858;DHT22;10589;53.636;10.012;2023-08-06T08:13:41;17.20;99.90
20858;DHT22;10589;53.636;10.012;2023-08-06T08:16:06;17.20;99.90
20858;DHT22;10589;53.636;10.012;2023-08-06T08:18:32;17.10;99.90
20858;DHT22;10589;53.636;10.012;2023-08-06T08:20:58;17.10;99.90
20858;DHT22;10589;53.636;10.012;2023-08-06T08:23:23;17.10;99.90
20858;DHT22;10589;53.636;10.012;2023-08-06T08:25:49;17.20;99.90
20858;DHT22;10589;53.636;10.012;2023-08-06T08:28:15;17.20;99.90
20858;DHT22;10589;53.636;10.012;2023-08-06T08:30:41;17.30;99.90
20858;DHT22;10589;53.636;10.012;2023-08-06T08:33:07;17.30;99.90
20858;DHT22;10589;53.636;10.012;2023-08-06T08:35:33;17.40;99.90
20858;DHT22;10589;53.636;10.012;2023-08-06T08:37:59;17.30;99.90
20858;DHT22;10589;53.636;10.012;2023-08-06T08:40:31;17.30;99.90
20858;DHT22;10589;53.636;10.012;2023-08-06T08:43:01;17.40;99.90
20858;DHT22;10589;53.636;10.012;2023-08-06T08:45:29;17.20;99.90
20858;DHT22;10589;53.636;10.012;2023-08-06T08:47:55;17.10;99.90
20858;DHT22;10589;53.636;10.012;2023-08-06T08:50:21;17.30;99.90
20858;DHT22;10589;53.636;10.012;2023-08-06T08:52:47;17.20;99.90
20858;DHT22;10589;53.636;10.012;2023-08-06T08:55:15;17.20;99.90
20858;DHT22;10589;53.636;10.012;2023-08-06T08:57:42;17.20;99.90
20858;DHT22;10589;53.636;10.012;2023-08-06T09:00:08;17.20;99.90
20858;DHT22;10589;53.636;10.012;2023-08-06T09:02:34;17.20;99.90
20858;DHT22;10589;53.636;10.012;2023-08-06T09:05:03;17.20;99.90
20858;DHT22;10589;53.636;10.012;2023-08-06T09:07:42;17.20;99.90
20858;DHT22;10589;53.636;10.012;2023-08-06T09:10:11;17.10;99.90
20858;DHT22;10589;53.636;10.012;2023-08-06T09:12:39;17.00;99.90
20858;DHT22;10589;53.636;10.012;2023-08-06T09:15:05;17.00;99.90
20858;DHT22;10589;53.636;10.012;2023-08-06T09:17:31;16.90;99.90
20858;DHT22;10589;53.636;10.012;2023-08-06T09:19:56;16.90;99.90
20858;DHT22;10589;53.636;10.012;2023-08-06T09:22:23;16.80;99.90
20858;DHT22;10589;53.636;10.012;2023-08-06T09:24:48;16.80;99.90
20858;DHT22;10589;53.636;10.012;2023-08-06T09:27:15;16.80;99.90
20858;DHT22;10589;53.636;10.012;2023-08-06T09:29:44;16.80;99.90
20858;DHT22;10589;53.636;10.012;2023-08-06T09:32:11;16.80;99.90
20858;DHT22;10589;53.636;10.012;2023-08-06T09:34:42;16.80;99.90
20858;DHT22;10589;53.636;10.012;2023-08-06T09:37:11;16.70;99.90
20858;DHT22;10589;53.636;10.012;2023-08-06T09:39:39;16.70;99.90
20858;DHT22;10589;53.636;10.012;2023-08-06T09:42:06;16.80;99.90
20858;DHT22;10589;53.636;10.012;2023-08-06T09:44:33;16.70;99.90
20858;DHT22;10589;53.636;10.012;2023-08-06T09:47:00;16.70;99.90
20858;DHT22;10589;53.636;10.012;2023-08-06T09:49:40;16.60;99.90
20858;DHT22;10589;53.636;10.012;2023-08-06T09:52:13;16.50;99.90
20858;DHT22;10589;53.636;10.012;2023-08-06T09:54:43;16.40;99.90
20858;DHT22;10589;53.636;10.012;2023-08-06T09:57:08;16.40;99.90
20858;DHT22;10589;53.636;10.012;2023-08-06T09:59:35;16.30;99.90
20858;DHT22;10589;53.636;10.012;2023-08-06T10:02:02;16.30;99.90
20858;DHT22;10589;53.636;10.012;2023-08-06T10:04:32;16.20;99.90
20858;DHT22;10589;53.636;10.012;2023-08-06T10:06:58;16.20;99.90
20858;DHT22;10589;53.636;10.012;2023-08-06T10:09:24;16.10;99.90
20858;DHT22;10589;53.636;10.012;2023-08-06T10:11:51;16.10;99.90
20858;DHT22;10589;53.636;10.012;2023-08-06T10:14:33;16.20;99.90
20858;DHT22;10589;53.636;10.012;2023-08-06T10:17:00;16.10;99.90
20858;DHT22;10589;53.636;10.012;2023-08-06T10:19:27;16.20;99.90
20858;DHT22;10589;53.636;10.012;2023-08-06T10:22:10;16.20;99.90
20858;DHT22;10589;53.636;10.012;2023-08-06T10:27:20;16.30;99.90
20858;DHT22;10589;53.636;10.012;2023-08-06T10:29:46;16.30;99.90
20858;DHT22;10589;53.636;10.012;2023-08-06T10:32:11;16.20;99.90
20858;DHT22;10589;53.636;10.012;2023-08-06T10:34:56;16.30;99.90
20858;DHT22;10589;53.636;10.012;2023-08-06T10:37:23;16.30;99.90
20858;DHT22;10589;53.636;10.012;2023-08-06T10:39:50;16.40;99.90
20858;DHT22;10589;53.636;10.012;2023-08-06T10:42:27;16.40;99.90
20858;DHT22;10589;53.636;10.012;2023-08-06T10:45:16;16.50;99.90
20858;DHT22;10589;53.636;10.012;2023-08-06T10:47:42;16.60;99.90
20858;DHT22;10589;53.636;10.012;2023-08-06T10:50:11;16.70;99.90
20858;DHT22;10589;53.636;10.012;2023-08-06T10:52:37;16.70;99.90
20858;DHT22;10589;53.636;10.012;2023-08-06T10:55:04;16.70;99.90
20858;DHT22;10589;53.636;10.012;2023-08-06T10:57:29;16.70;99.90
20858;DHT22;10589;53.636;10.012;2023-08-06T10:59:55;16.70;99.90
20858;DHT22;10589;53.636;10.012;2023-08-06T11:02:21;16.70;99.90
20858;DHT22;10589;53.636;10.012;2023-08-06T11:04:48;16.80;99.90
20858;DHT22;10589;53.636;10.012;2023-08-06T11:07:14;16.90;99.90
20858;DHT22;10589;53.636;10.012;2023-08-06T11:09:39;16.90;99.90
20858;DHT22;10589;53.636;10.012;2023-08-06T11:12:11;16.90;99.90
20858;DHT22;10589;53.636;10.012;2023-08-06T11:14:37;16.80;99.90
20858;DHT22;10589;53.636;10.012;2023-08-06T11:17:05;16.80;99.90
20858;DHT22;10589;53.636;10.012;2023-08-06T11:19:30;16.90;99.90
20858;DHT22;10589;53.636;10.012;2023-08-06T11:21:56;16.80;99.90
20858;DHT22;10589;53.636;10.012;2023-08-06T11:24:24;16.90;99.90
20858;DHT22;10589;53.636;10.012;2023-08-06T11:26:49;16.90;99.90
20858;DHT22;10589;53.636;10.012;2023-08-06T11:29:15;17.10;99.90
20858;DHT22;10589;53.636;10.012;2023-08-06T11:31:41;17.30;99.90
20858;DHT22;10589;53.636;10.012;2023-08-06T11:34:07;17.20;99.90
20858;DHT22;10589;53.636;10.012;2023-08-06T11:36:40;17.30;99.90
20858;DHT22;10589;53.636;10.012;2023-08-06T11:39:06;17.40;99.90
20858;DHT22;10589;53.636;10.012;2023-08-06T11:41:32;17.50;99.90
20858;DHT22;10589;53.636;10.012;2023-08-06T11:43:58;17.40;99.90
20858;DHT22;10589;53.636;10.012;2023-08-06T11:46:24;17.50;99.90
20858;DHT22;10589;53.636;10.012;2023-08-06T11:48:54;17.40;99.90
20858;DHT22;10589;53.636;10.012;2023-08-06T11:51:26;17.20;99.90
20858;DHT22;10589;53.636;10.012;2023-08-06T11:53:56;17.20;99.90
20858;DHT22;10589;53.636;10.012;2023-08-06T11:56:22;17.20;99.90
20858;DHT22;10589;53.636;10.012;2023-08-06T11:58:48;17.50;99.90
20858;DHT22;10589;53.636;10.012;2023-08-06T12:01:14;17.60;99.90
20858;DHT22;10589;53.636;10.012;2023-08-06T12:03:40;17.60;99.90
20858;DHT22;10589;53.636;10.012;2023-08-06T12:06:06;17.40;99.90
20858;DHT22;10589;53.636;10.012;2023-08-06T12:08:35;17.60;99.90
20858;DHT22;10589;53.636;10.012;2023-08-06T12:11:00;17.60;99.90
20858;DHT22;10589;53.636;10.012;2023-08-06T12:13:26;17.80;99.90
20858;DHT22;10589;53.636;10.012;2023-08-06T12:15:53;17.90;99.90
20858;DHT22;10589;53.636;10.012;2023-08-06T12:18:19;18.10;99.90
20858;DHT22;10589;53.636;10.012;2023-08-06T12:20:44;18.30;99.90
20858;DHT22;10589;53.636;10.012;2023-08-06T12:23:10;18.40;99.90
20858;DHT22;10589;53.636;10.012;2023-08-06T12:25:38;18.50;99.90
20858;DHT22;10589;53.636;10.012;2023-08-06T12:28:04;18.60;99.90
20858;DHT22;10589;53.636;10.012;2023-08-06T12:30:31;18.80;99.90
20858;DHT22;10589;53.636;10.012;2023-08-06T12:32:56;18.70;99.90
20858;DHT22;10589;53.636;10.012;2023-08-06T12:35:22;18.80;99.90
20858;DHT22;10589;53.636;10.012;2023-08-06T12:37:48;18.90;99.90
20858;DHT22;10589;53.636;10.012;2023-08-06T12:40:14;18.90;99.90
20858;DHT22;10589;53.636;10.012;2023-08-06T12:42:39;18.90;99.90
20858;DHT22;10589;53.636;10.012;2023-08-06T12:45:05;19.00;99.90
20858;DHT22;10589;53.636;10.012;2023-08-06T12:47:31;19.10;99.90
20858;DHT22;10589;53.636;10.012;2023-08-06T12:49:57;19.30;99.90
20858;DHT22;10589;53.636;10.012;2023-08-06T12:52:22;19.40;99.90
20858;DHT22;10589;53.636;10.012;2023-08-06T12:54:48;19.20;99.90
20858;DHT22;10589;53.636;10.012;2023-08-06T12:57:14;19.50;99.90
20858;DHT22;10589;53.636;10.012;2023-08-06T12:59:40;19.60;99.90
20858;DHT22;10589;53.636;10.012;2023-08-06T13:02:06;19.90;99.90
20858;DHT22;10589;53.636;10.012;2023-08-06T13:04:32;19.90;99.90
20858;DHT22;10589;53.636;10.012;2023-08-06T13:06:59;20.00;99.90
20858;DHT22;10589;53.636;10.012;2023-08-06T13:09:25;20.10;99.90
20858;DHT22;10589;53.636;10.012;2023-08-06T13:11:52;20.60;99.90
20858;DHT22;10589;53.636;10.012;2023-08-06T13:14:18;20.40;99.90
20858;DHT22;10589;53.636;10.012;2023-08-06T13:16:45;20.80;99.90
20858;DHT22;10589;53.636;10.012;2023-08-06T13:19:10;21.40;99.90
20858;DHT22;10589;53.636;10.012;2023-08-06T13:24:07;21.70;99.90
20858;DHT22;10589;53.636;10.012;2023-08-06T13:26:33;21.70;99.90
20858;DHT22;10589;53.636;10.012;2023-08-06T13:29:00;21.40;99.90
20858;DHT22;10589;53.636;10.012;2023-08-06T13:31:26;21.20;99.90
20858;DHT22;10589;53.636;10.012;2023-08-06T13:33:57;21.30;99.90
20858;DHT22;10589;53.636;10.012;2023-08-06T13:36:29;21.30;99.90
20858;DHT22;10589;53.636;10.012;2023-08-06T13:38:55;21.00;99.90
20858;DHT22;10589;53.636;10.012;2023-08-06T13:41:21;20.80;99.90
20858;DHT22;10589;53.636;10.012;2023-08-06T13:43:47;20.60;99.90
20858;DHT22;10589;53.636;10.012;2023-08-06T13:46:13;20.90;99.90
20858;DHT22;10589;53.636;10.012;2023-08-06T13:48:44;20.80;99.90
20858;DHT22;10589;53.636;10.012;2023-08-06T13:51:11;21.00;99.90
20858;DHT22;10589;53.636;10.012;2023-08-06T13:53:37;20.60;99.90
20858;DHT22;10589;53.636;10.012;2023-08-06T13:56:04;20.40;99.90
20858;DHT22;10589;53.636;10.012;2023-08-06T13:58:29;20.30;99.90
20858;DHT22;10589;53.636;10.012;2023-08-06T14:00:55;20.00;99.90
20858;DHT22;10589;53.636;10.012;2023-08-06T14:03:22;20.10;99.90
20858;DHT22;10589;53.636;10.012;2023-08-06T14:05:47;20.10;99.90
20858;DHT22;10589;53.636;10.012;2023-08-06T14:08:15;20.10;99.90
20858;DHT22;10589;53.636;10.012;2023-08-06T14:10:43;19.80;99.90
20858;DHT22;10589;53.636;10.012;2023-08-06T14:13:09;19.80;99.90
20858;DHT22;10589;53.636;10.012;2023-08-06T14:15:35;20.00;99.90
20858;DHT22;10589;53.636;10.012;2023-08-06T14:18:00;20.10;99.90
20858;DHT22;10589;53.636;10.012;2023-08-06T14:20:27;20.00;99.90
20858;DHT22;10589;53.636;10.012;2023-08-06T14:22:53;19.80;99.90
20858;DHT22;10589;53.636;10.012;2023-08-06T14:25:18;19.40;99.90
20858;DHT22;10589;53.636;10.012;2023-08-06T14:27:44;19.10;99.90
20858;DHT22;10589;53.636;10.012;2023-08-06T14:30:10;19.00;99.90
20858;DHT22;10589;53.636;10.012;2023-08-06T14:32:35;19.00;99.90
20858;DHT22;10589;53.636;10.012;2023-08-06T14:35:02;18.70;99.90
20858;DHT22;10589;53.636;10.012;2023-08-06T14:37:28;18.80;99.90
20858;DHT22;10589;53.636;10.012;2023-08-06T14:39:53;18.80;99.90
20858;DHT22;10589;53.636;10.012;2023-08-06T14:42:19;18.80;99.90
20858;DHT22;10589;53.636;10.012;2023-08-06T14:44:45;18.60;99.90
20858;DHT22;10589;53.636;10.012;2023-08-06T14:47:11;18.70;99.90
20858;DHT22;10589;53.636;10.012;2023-08-06T14:49:37;18.60;99.90
20858;DHT22;10589;53.636;10.012;2023-08-06T14:52:03;18.50;99.90
20858;DHT22;10589;53.636;10.012;2023-08-06T14:54:29;18.50;99.90
20858;DHT22;10589;53.636;10.012;2023-08-06T14:56:55;18.50;99.90
20858;DHT22;10589;53.636;10.012;2023-08-06T14:59:20;18.70;99.90
20858;DHT22;10589;53.636;10.012;2023-08-06T15:01:46;18.70;99.90
20858;DHT22;10589;53.636;10.012;2023-08-06T15:04:11;18.80;99.90
20858;DHT22;10589;53.636;10.012;2023-08-06T15:06:37;18.70;99.90
20858;DHT22;10589;53.636;10.012;2023-08-06T15:09:02;18.70;99.90
20858;DHT22;10589;53.636;10.012;2023-08-06T15:11:28;18.70;99.90
20858;DHT22;10589;53.636;10.012;2023-08-06T15:13:54;18.60;99.90
20858;DHT22;10589;53.636;10.012;2023-08-06T15:16:19;18.50;99.90
20858;DHT22;10589;53.636;10.012;2023-08-06T15:18:45;18.40;99.90
20858;DHT22;10589;53.636;10.012;2023-08-06T15:21:11;18.50;99.90
20858;DHT22;10589;53.636;10.012;2023-08-06T15:23:36;18.50;99.90
20858;DHT22;10589;53.636;10.012;2023-08-06T15:26:02;18.70;99.90
20858;DHT22;10589;53.636;10.012;2023-08-06T15:28:28;19.00;99.90
20858;DHT22;10589;53.636;10.012;2023-08-06T15:30:54;18.90;99.90
20858;DHT22;10589;53.636;10.012;2023-08-06T15:33:20;18.70;99.90
20858;DHT22;10589;53.636;10.012;2023-08-06T15:35:46;18.70;99.90
20858;DHT22;10589;53.636;10.012;2023-08-06T15:38:13;18.70;99.90
20858;DHT22;10589;53.636;10.012;2023-08-06T15:40:39;18.70;99.90
20858;DHT22;10589;53.636;10.012;2023-08-06T15:43:04;18.80;99.90
20858;DHT22;10589;53.636;10.012;2023-08-06T15:45:30;18.90;99.90
20858;DHT22;10589;53.636;10.012;2023-08-06T15:47:56;18.90;99.90
20858;DHT22;10589;53.636;10.012;2023-08-06T15:50:22;19.00;99.90
20858;DHT22;10589;53.636;10.012;2023-08-06T15:52:48;18.90;99.90
20858;DHT22;10589;53.636;10.012;2023-08-06T15:55:14;18.80;99.90
20858;DHT22;10589;53.636;10.012;2023-08-06T15:57:39;18.50;99.90
20858;DHT22;10589;53.636;10.012;2023-08-06T16:00:05;18.60;99.90
20858;DHT22;10589;53.636;10.012;2023-08-06T16:02:31;18.40;99.90
20858;DHT22;10589;53.636;10.012;2023-08-06T16:04:59;18.20;99.90
20858;DHT22;10589;53.636;10.012;2023-08-06T16:07:25;18.30;99.90
20858;DHT22;10589;53.636;10.012;2023-08-06T16:09:55;18.40;99.90
20858;DHT22;10589;53.636;10.012;2023-08-06T16:12:21;18.20;99.90
20858;DHT22;10589;53.636;10.012;2023-08-06T16:14:47;18.00;99.90
20858;DHT22;10589;53.636;10.012;2023-08-06T16:17:13;18.00;99.90
20858;DHT22;10589;53.636;10.012;2023-08-06T16:19:39;18.00;99.90
20858;DHT22;10589;53.636;10.012;2023-08-06T16:22:05;17.90;99.90
20858;DHT22;10589;53.636;10.012;2023-08-06T16:24:30;18.00;99.90
20858;DHT22;10589;53.636;10.012;2023-08-06T16:26:57;18.10;99.90
20858;DHT22;10589;53.636;10.012;2023-08-06T16:29:22;18.20;99.90
20858;DHT22;10589;53.636;10.012;2023-08-06T16:31:48;18.20;99.90
20858;DHT22;10589;53.636;10.012;2023-08-06T16:34:14;18.30;99.90
20858;DHT22;10589;53.636;10.012;2023-08-06T16:36:39;18.10;99.90
20858;DHT22;10589;53.636;10.012;2023-08-06T16:39:05;18.10;99.90
20858;DHT22;10589;53.636;10.012;2023-08-06T16:41:33;18.10;99.90
20858;DHT22;10589;53.636;10.012;2023-08-06T16:43:59;18.10;99.90
20858;DHT22;10589;53.636;10.012;2023-08-06T16:46:24;18.10;99.90
20858;DHT22;10589;53.636;10.012;2023-08-06T16:48:50;18.10;99.90
20858;DHT22;10589;53.636;10.012;2023-08-06T16:51:15;18.00;99.90
20858;DHT22;10589;53.636;10.012;2023-08-06T16:53:44;18.00;99.90
20858;DHT22;10589;53.636;10.012;2023-08-06T16:56:10;18.00;99.90
20858;DHT22;10589;53.636;10.012;2023-08-06T16:58:36;18.10;99.90
20858;DHT22;10589;53.636;10.012;2023-08-06T17:01:01;18.00;99.90
20858;DHT22;10589;53.636;10.012;2023-08-06T17:03:34;18.00;99.90
20858;DHT22;10589;53.636;10.012;2023-08-06T17:06:00;18.00;99.90
20858;DHT22;10589;53.636;10.012;2023-08-06T17:08:27;18.00;99.90
20858;DHT22;10589;53.636;10.012;2023-08-06T17:10:56;17.90;99.90
20858;DHT22;10589;53.636;10.012;2023-08-06T17:13:22;17.80;99.90
20858;DHT22;10589;53.636;10.012;2023-08-06T17:15:48;17.90;99.90
20858;DHT22;10589;53.636;10.012;2023-08-06T17:18:14;17.80;99.90
20858;DHT22;10589;53.636;10.012;2023-08-06T17:20:43;17.70;99.90
20858;DHT22;10589;53.636;10.012;2023-08-06T17:23:08;17.80;99.90
20858;DHT22;10589;53.636;10.012;2023-08-06T17:25:34;17.90;99.90
20858;DHT22;10589;53.636;10.012;2023-08-06T17:28:01;17.80;99.90
20858;DHT22;10589;53.636;10.012;2023-08-06T17:30:29;17.80;99.90
20858;DHT22;10589;53.636;10.012;2023-08-06T17:32:54;17.80;99.90
20858;DHT22;10589;53.636;10.012;2023-08-06T17:35:20;17.90;99.90
20858;DHT22;10589;53.636;10.012;2023-08-06T17:37:46;17.90;99.90
20858;DHT22;10589;53.636;10.012;2023-08-06T17:40:12;17.90;99.90
20858;DHT22;10589;53.636;10.012;2023-08-06T17:42:38;17.90;99.90
20858;DHT22;10589;53.636;10.012;2023-08-06T17:45:04;17.90;99.90
20858;DHT22;10589;53.636;10.012;2023-08-06T17:47:29;17.90;99.90
20858;DHT22;10589;53.636;10.012;2023-08-06T17:49:55;17.90;99.90
20858;DHT22;10589;53.636;10.012;2023-08-06T17:52:22;17.90;99.90
20858;DHT22;10589;53.636;10.012;2023-08-06T17:54:47;17.80;99.90
20858;DHT22;10589;53.636;10.012;2023-08-06T17:57:13;17.80;99.90
20858;DHT22;10589;53.636;10.012;2023-08-06T17:59:38;17.80;99.90
20858;DHT22;10589;53.636;10.012;2023-08-06T18:02:05;17.70;99.90
20858;DHT22;10589;53.636;10.012;2023-08-06T18:04:31;17.70;99.90
20858;DHT22;10589;53.636;10.012;2023-08-06T18:06:57;17.60;99.90
20858;DHT22;10589;53.636;10.012;2023-08-06T18:09:23;17.50;99.90
20858;DHT22;10589;53.636;10.012;2023-08-06T18:11:48;17.50;99.90
20858;DHT22;10589;53.636;10.012;2023-08-06T18:14:14;17.40;99.90
20858;DHT22;10589;53.636;10.012;2023-08-06T18:16:39;17.30;99.90
20858;DHT22;10589;53.636;10.012;2023-08-06T18:19:05;17.30;99.90
20858;DHT22;10589;53.636;10.012;2023-08-06T18:21:30;17.20;99.90
20858;DHT22;10589;53.636;10.012;2023-08-06T18:23:56;17.20;99.90
20858;DHT22;10589;53.636;10.012;2023-08-06T18:26:24;17.20;99.90
20858;DHT22;10589;53.636;10.012;2023-08-06T18:28:51;17.20;99.90
20858;DHT22;10589;53.636;10.012;2023-08-06T18:31:16;17.20;99.90
20858;DHT22;10589;53.636;10.012;2023-08-06T18:33:42;17.10;99.90
20858;DHT22;10589;53.636;10.012;2023-08-06T18:36:16;17.10;99.90
20858;DHT22;10589;53.636;10.012;2023-08-06T18:38:42;17.00;99.90
20858;DHT22;10589;53.636;10.012;2023-08-06T18:41:08;17.00;99.90
20858;DHT22;10589;53.636;10.012;2023-08-06T18:43:34;16.90;99.90
20858;DHT22;10589;53.636;10.012;2023-08-06T18:45:59;16.90;99.90
20858;DHT22;10589;53.636;10.012;2023-08-06T18:48:25;16.90;99.90
20858;DHT22;10589;53.636;10.012;2023-08-06T18:50:51;16.90;99.90
20858;DHT22;10589;53.636;10.012;2023-08-06T18:53:18;16.80;99.90
20858;DHT22;10589;53.636;10.012;2023-08-06T18:55:50;16.80;99.90
20858;DHT22;10589;53.636;10.012;2023-08-06T18:58:19;16.70;99.90
20858;DHT22;10589;53.636;10.012;2023-08-06T19:00:45;16.70;99.90